Time;durP1;ratioP1;P1;durP2;ratioP2;P2;SDS_P1;SDS_P2;PMS_P1;PMS_P2;Temp;Humidity;BMP_temperature;BMP_pressure;BME280_temperature;BME280_humidity;BME280_pressure;Samples;Min_cycle;Max_cycle;Signal;HPM_P1;HPM_P2
2022/11/13 00:00:48;;;;;;;100.25;38.90;;;12.40;99.90;;;;;;5056506;28;20045;-76
2022/11/13 00:03:34;;;;;;;110.72;41.60;;;12.50;99.90;;;;;;5055942;28;20048;-76
2022/11/13 00:06:21;;;;;;;115.85;39.78;;;12.40;99.90;;;;;;5056974;28;20060;-77
2022/11/13 00:09:10;;;;;;;99.63;37.40;;;12.50;99.90;;;;;;5055736;28;20049;-77
2022/11/13 00:11:56;;;;;;;104.43;38.53;;;12.50;99.90;;;;;;5057003;28;20049;-77
2022/11/13 00:14:46;;;;;;;105.53;38.65;;;12.40;99.90;;;;;;5056520;28;20052;-76
2022/11/13 00:17:32;;;;;;;105.35;38.67;;;12.60;99.90;;;;;;5054724;28;20041;-77
2022/11/13 00:20:18;;;;;;;114.75;38.97;;;10.70;99.90;;;;;;5056641;28;20380;-76
2022/11/13 00:23:04;;;;;;;99.40;38.30;;;12.50;99.90;;;;;;5054535;28;20052;-77
2022/11/13 00:25:50;;;;;;;94.53;38.05;;;12.50;99.90;;;;;;5055969;28;20045;-77
2022/11/13 00:28:37;;;;;;;112.50;38.30;;;12.50;99.90;;;;;;5056353;28;20052;-76
2022/11/13 00:31:24;;;;;;;97.28;37.22;;;12.40;99.90;;;;;;5056348;28;20045;-76
2022/11/13 00:34:10;;;;;;;98.55;36.78;;;12.40;99.90;;;;;;5056722;28;20379;-76
2022/11/13 00:37:16;;;;;;;103.43;37.30;;;12.40;99.90;;;;;;5055175;28;20045;-77
2022/11/13 00:40:03;;;;;;;89.68;35.85;;;12.50;99.90;;;;;;5056703;28;20049;-77
2022/11/13 00:42:49;;;;;;;96.90;36.38;;;12.40;99.90;;;;;;5054480;28;20056;-76
2022/11/13 00:45:35;;;;;;;98.35;38.25;;;13.00;99.90;;;;;;5055350;28;20041;-76
2022/11/13 00:48:22;;;;;;;102.85;36.00;;;12.80;99.90;;;;;;5056452;28;20037;-76
2022/11/13 00:51:08;;;;;;;106.05;37.88;;;12.40;99.90;;;;;;5056464;28;20033;-76
2022/11/13 00:53:54;;;;;;;110.15;39.72;;;12.40;99.90;;;;;;5055921;28;20456;-76
2022/11/13 00:56:39;;;;;;;108.53;38.55;;;12.40;99.90;;;;;;5053818;28;20455;-76
2022/11/13 00:59:26;;;;;;;109.22;39.03;;;12.30;99.90;;;;;;5056063;28;20041;-76
2022/11/13 01:02:14;;;;;;;116.35;40.20;;;12.40;99.90;;;;;;5054789;28;20048;-76
2022/11/13 01:05:00;;;;;;;118.93;40.13;;;12.40;99.90;;;;;;5055636;28;20044;-76
2022/11/13 01:07:46;;;;;;;125.60;41.45;;;12.40;99.90;;;;;;5055597;28;20056;-76
2022/11/13 01:10:37;;;;;;;117.38;40.38;;;12.70;99.90;;;;;;5054531;28;20048;-76
2022/11/13 01:13:23;;;;;;;117.97;39.35;;;12.30;99.90;;;;;;5055903;28;20067;-76
2022/11/13 01:16:10;;;;;;;117.75;38.88;;;12.40;99.90;;;;;;5054419;28;20044;-76
2022/11/13 01:18:56;;;;;;;122.03;39.72;;;12.30;99.90;;;;;;5054595;28;20060;-76
2022/11/13 01:21:42;;;;;;;117.10;36.70;;;12.30;99.90;;;;;;5055409;28;20037;-76
2022/11/13 01:24:28;;;;;;;119.32;35.60;;;12.40;99.90;;;;;;5054952;28;20045;-76
2022/11/13 01:27:14;;;;;;;110.93;34.00;;;12.30;99.90;;;;;;5055340;28;20051;-76
2022/11/13 01:30:00;;;;;;;98.05;32.58;;;12.30;99.90;;;;;;5054173;28;20355;-77
2022/11/13 01:32:46;;;;;;;94.75;32.35;;;12.30;99.90;;;;;;5055167;28;20044;-76
2022/11/13 01:35:32;;;;;;;103.00;32.10;;;12.30;99.90;;;;;;5054297;28;20051;-76
2022/11/13 01:38:18;;;;;;;96.97;32.20;;;12.20;99.90;;;;;;5054899;28;20064;-76
2022/11/13 01:41:05;;;;;;;104.20;32.63;;;12.20;99.90;;;;;;5054358;28;20060;-76
2022/11/13 01:43:53;;;;;;;102.83;31.50;;;12.20;99.90;;;;;;5053952;28;20037;-76
2022/11/13 01:46:41;;;;;;;;;;;12.20;99.90;;;;;;5055995;28;20052;-76
2022/11/13 01:49:29;;;;;;;;;;;12.10;99.90;;;;;;5053721;28;19925;-76
2022/11/13 01:52:24;;;;;;;88.85;30.98;;;12.10;99.90;;;;;;5054153;28;19921;-76
2022/11/13 01:55:14;;;;;;;97.13;30.95;;;12.10;99.90;;;;;;5054234;28;20053;-76
2022/11/13 01:58:03;;;;;;;99.13;29.80;;;12.10;99.90;;;;;;5054750;28;20041;-76
2022/11/13 02:00:49;;;;;;;88.15;29.67;;;12.40;99.90;;;;;;5054893;28;20055;-76
2022/11/13 02:03:35;;;;;;;90.57;29.40;;;13.20;99.90;;;;;;5053904;28;20486;-76
2022/11/13 02:06:21;;;;;;;95.00;29.23;;;12.20;99.90;;;;;;5054973;28;20045;-77
2022/11/13 02:09:09;;;;;;;83.63;29.00;;;12.20;99.90;;;;;;5052717;28;20057;-76
2022/11/13 02:11:56;;;;;;;79.10;29.02;;;12.20;99.90;;;;;;5054214;28;20048;-77
2022/11/13 02:14:46;;;;;;;95.22;29.05;;;12.80;99.90;;;;;;5053989;28;20460;-76
2022/11/13 02:17:45;;;;;;;77.40;27.25;;;12.20;99.90;;;;;;5053463;28;20056;-76
2022/11/13 02:20:44;;;;;;;71.03;25.80;;;12.10;99.90;;;;;;5054471;28;20049;-76
2022/11/13 02:23:35;;;;;;;72.28;26.23;;;12.20;99.90;;;;;;5053483;28;20387;-77
2022/11/13 02:26:24;;;;;;;69.22;25.02;;;10.90;99.90;;;;;;5053967;28;20056;-76
2022/11/13 02:29:10;;;;;;;68.80;24.70;;;12.10;99.90;;;;;;5053561;28;20041;-76
2022/11/13 02:31:56;;;;;;;70.28;25.30;;;12.00;99.90;;;;;;5057541;28;20057;-76
2022/11/13 02:34:42;;;;;;;78.45;26.42;;;12.00;99.90;;;;;;5058280;28;20487;-77
2022/11/13 02:37:28;;;;;;;70.03;24.35;;;12.00;99.90;;;;;;5057376;28;20045;-76
2022/11/13 02:40:14;;;;;;;75.00;25.65;;;11.90;99.90;;;;;;5057789;28;20045;-76
2022/11/13 02:43:01;;;;;;;71.03;25.67;;;11.90;99.90;;;;;;5057650;28;20045;-77
2022/11/13 02:45:46;;;;;;;83.97;25.05;;;11.80;99.90;;;;;;5058584;28;20037;-76
2022/11/13 02:48:33;;;;;;;73.95;23.45;;;11.80;99.90;;;;;;5058485;28;20045;-76
2022/11/13 02:51:19;;;;;;;84.53;26.05;;;11.80;99.90;;;;;;5058473;28;20053;-76
2022/11/13 02:54:05;;;;;;;88.13;27.05;;;11.70;99.90;;;;;;5058570;28;20037;-76
2022/11/13 02:56:51;;;;;;;84.10;26.83;;;11.70;99.90;;;;;;5056906;28;20048;-76
2022/11/13 02:59:37;;;;;;;79.72;26.17;;;11.70;99.90;;;;;;5057779;28;20057;-76
2022/11/13 03:02:23;;;;;;;88.40;26.00;;;11.80;99.90;;;;;;5057073;28;20037;-77
2022/11/13 03:05:09;;;;;;;83.40;25.65;;;11.80;99.90;;;;;;5058151;28;20041;-77
2022/11/13 03:07:58;;;;;;;82.88;26.23;;;11.90;99.90;;;;;;5058466;28;20051;-76
2022/11/13 03:10:44;;;;;;;86.85;28.02;;;11.80;99.90;;;;;;5056955;28;20041;-76
2022/11/13 03:13:30;;;;;;;81.78;26.20;;;11.80;99.90;;;;;;5058052;28;20056;-76
2022/11/13 03:16:16;;;;;;;85.10;27.25;;;11.90;99.90;;;;;;5056997;28;20037;-76
2022/11/13 03:19:02;;;;;;;74.80;25.30;;;11.90;99.90;;;;;;5058194;28;20041;-76
2022/11/13 03:21:49;;;;;;;81.70;26.23;;;11.90;99.90;;;;;;5057708;28;20056;-76
2022/11/13 03:24:35;;;;;;;84.50;26.85;;;12.00;99.90;;;;;;5058032;28;20048;-77
2022/11/13 03:27:21;;;;;;;74.63;26.17;;;12.00;99.90;;;;;;5057837;28;20041;-76
2022/11/13 03:30:08;;;;;;;84.65;26.38;;;12.00;99.90;;;;;;5056593;28;20059;-77
2022/11/13 03:32:54;;;;;;;84.75;26.13;;;12.00;99.90;;;;;;5057546;28;20048;-76
2022/11/13 03:35:41;;;;;;;78.90;25.88;;;12.00;99.90;;;;;;5056259;28;20056;-76
2022/11/13 03:38:32;;;;;;;79.28;27.23;;;12.00;99.90;;;;;;5057344;28;20052;-76
2022/11/13 03:41:20;;;;;;;83.00;27.23;;;12.00;99.90;;;;;;5056881;28;20482;-76
2022/11/13 03:44:06;;;;;;;76.07;25.55;;;12.00;99.90;;;;;;5056085;28;20052;-77
2022/11/13 03:46:52;;;;;;;74.88;24.75;;;12.00;99.90;;;;;;5057492;28;20041;-77
2022/11/13 03:49:38;;;;;;;80.25;25.45;;;12.00;99.90;;;;;;5056664;28;20049;-76
2022/11/13 03:52:24;;;;;;;78.90;25.27;;;12.00;99.90;;;;;;5057319;28;20056;-76
2022/11/13 03:55:10;;;;;;;82.53;25.20;;;12.00;99.90;;;;;;5056869;28;20392;-76
2022/11/13 03:57:58;;;;;;;75.53;24.95;;;12.00;99.90;;;;;;5057063;28;20052;-76
2022/11/13 04:00:45;;;;;;;69.22;24.50;;;12.00;99.90;;;;;;5056751;28;20045;-76
2022/11/13 04:03:31;;;;;;;81.05;24.73;;;12.00;99.90;;;;;;5055898;28;20049;-76
2022/11/13 04:06:17;;;;;;;66.70;22.92;;;12.00;99.90;;;;;;5056919;28;20060;-76
2022/11/13 04:09:03;;;;;;;67.22;23.15;;;12.00;99.90;;;;;;5056024;28;20044;-77
2022/11/13 04:11:49;;;;;;;66.15;22.75;;;12.10;99.90;;;;;;5056078;28;20052;-76
2022/11/13 04:14:35;;;;;;;68.53;22.80;;;12.00;99.90;;;;;;5056764;28;20050;-76
2022/11/13 04:17:21;;;;;;;64.50;23.00;;;12.10;99.90;;;;;;5055621;28;20045;-76
2022/11/13 04:20:08;;;;;;;68.47;23.65;;;12.00;99.90;;;;;;5056798;28;20037;-76
2022/11/13 04:22:57;;;;;;;63.40;22.13;;;12.10;99.90;;;;;;5055482;28;20041;-76
2022/11/13 04:25:44;;;;;;;67.20;23.65;;;12.10;99.90;;;;;;5055771;28;20468;-76
2022/11/13 04:28:30;;;;;;;72.65;23.20;;;12.00;99.90;;;;;;5057209;28;20051;-76
2022/11/13 04:31:17;;;;;;;70.20;24.30;;;12.10;99.90;;;;;;5056879;28;20045;-76
2022/11/13 04:34:02;;;;;;;67.78;24.02;;;12.10;99.90;;;;;;5056514;28;20376;-76
2022/11/13 04:36:48;;;;;;;62.35;23.17;;;12.10;99.90;;;;;;5055145;28;20044;-77
2022/11/13 04:39:34;;;;;;;63.78;23.65;;;12.10;99.90;;;;;;5056831;28;20052;-77
2022/11/13 04:45:26;;;;;;;65.55;23.90;;;12.10;99.90;;;;;;5055138;28;20467;-76
2022/11/13 04:48:12;;;;;;;62.85;23.55;;;12.10;99.90;;;;;;5056573;28;20045;-76
2022/11/13 04:50:58;;;;;;;67.25;25.25;;;12.10;99.90;;;;;;5054949;28;20037;-76
2022/11/13 04:53:44;;;;;;;68.70;24.60;;;12.20;99.90;;;;;;5056051;28;20045;-76
2022/11/13 04:56:30;;;;;;;68.10;24.27;;;12.10;99.90;;;;;;5039721;28;20048;-76
2022/11/13 04:59:16;;;;;;;66.03;24.17;;;12.10;99.90;;;;;;5055233;28;20041;-76
2022/11/13 05:02:03;;;;;;;68.90;24.80;;;12.10;99.90;;;;;;5055286;28;20033;-76
2022/11/13 05:04:49;;;;;;;65.05;23.10;;;12.10;99.90;;;;;;5056125;28;20048;-76
2022/11/13 05:07:36;;;;;;;70.13;25.35;;;12.10;99.90;;;;;;5055886;28;20045;-76
2022/11/13 05:10:22;;;;;;;54.67;22.58;;;12.10;99.90;;;;;;5054599;28;20383;-76
2022/11/13 05:13:08;;;;;;;57.35;21.15;;;12.10;99.90;;;;;;5056130;28;20049;-76
2022/11/13 05:16:05;;;;;;;53.97;20.40;;;12.30;99.90;;;;;;5054654;28;20045;-76
2022/11/13 05:18:51;;;;;;;63.53;21.05;;;12.00;99.90;;;;;;5056202;28;20045;-76
2022/11/13 05:21:38;;;;;;;79.70;21.23;;;12.00;99.90;;;;;;5055694;28;20048;-76
2022/11/13 05:24:24;;;;;;;73.70;22.80;;;11.90;99.90;;;;;;5054464;28;20044;-76
2022/11/13 05:27:10;;;;;;;68.75;21.70;;;11.90;99.90;;;;;;5055698;28;20060;-77
2022/11/13 05:30:03;;;;;;;62.25;20.35;;;12.00;99.90;;;;;;5053647;28;20055;-76
2022/11/13 05:32:51;;;;;;;63.67;21.03;;;11.90;99.90;;;;;;5055619;28;20045;-76
2022/11/13 05:35:37;;;;;;;78.57;23.10;;;11.90;99.90;;;;;;5054564;28;20051;-76
2022/11/13 05:38:22;;;;;;;70.40;20.95;;;11.90;99.90;;;;;;5055156;28;20037;-76
2022/11/13 05:41:19;;;;;;;67.90;20.60;;;11.90;99.90;;;;;;5055168;28;20108;-76
2022/11/13 05:44:05;;;;;;;70.75;21.80;;;11.90;99.90;;;;;;5053916;28;20456;-76
2022/11/13 05:46:51;;;;;;;58.33;20.95;;;11.80;99.90;;;;;;5054383;28;20049;-76
2022/11/13 05:49:37;;;;;;;53.38;19.38;;;11.90;99.90;;;;;;5053152;28;20045;-77
2022/11/13 05:52:23;;;;;;;51.55;19.98;;;11.80;99.90;;;;;;5054598;28;20475;-76
2022/11/13 05:55:09;;;;;;;53.60;19.02;;;12.00;99.90;;;;;;5055227;28;20064;-76
2022/11/13 05:57:57;;;;;;;51.28;17.60;;;11.80;99.90;;;;;;5054691;28;20045;-77
2022/11/13 06:00:44;;;;;;;44.38;16.63;;;11.70;99.90;;;;;;5054958;28;20044;-76
2022/11/13 06:03:29;;;;;;;58.97;19.20;;;11.70;99.90;;;;;;5053864;28;20052;-76
2022/11/13 06:06:19;;;;;;;67.40;20.38;;;11.70;99.90;;;;;;5053982;28;20478;-76
2022/11/13 06:09:06;;;;;;;75.15;20.35;;;11.70;99.90;;;;;;5053954;28;20033;-76
2022/11/13 06:11:52;;;;;;;70.45;19.63;;;11.70;99.90;;;;;;5054734;28;20052;-76
2022/11/13 06:14:38;;;;;;;66.05;18.00;;;11.70;99.90;;;;;;5054929;28;20444;-76
2022/11/13 06:17:23;;;;;;;51.13;15.48;;;12.00;99.90;;;;;;5053540;28;20333;-76
2022/11/13 06:20:09;;;;;;;79.50;16.33;;;11.70;99.90;;;;;;5054649;28;20060;-77
2022/11/13 06:22:57;;;;;;;62.92;17.58;;;11.60;99.90;;;;;;5053527;28;20037;-76
2022/11/13 06:25:42;;;;;;;84.47;16.52;;;11.80;99.90;;;;;;5054209;28;20379;-76
2022/11/13 06:28:29;;;;;;;55.72;14.15;;;11.60;99.90;;;;;;5053900;28;20372;-76
2022/11/13 06:31:24;;;;;;;54.08;15.00;;;11.60;99.90;;;;;;5054578;28;20042;-76
2022/11/13 06:34:10;;;;;;;46.90;15.15;;;11.60;99.90;;;;;;5053999;28;20045;-76
2022/11/13 06:36:56;;;;;;;53.42;16.02;;;11.50;99.90;;;;;;5053490;28;20040;-76
2022/11/13 06:39:42;;;;;;;60.50;14.40;;;11.50;99.90;;;;;;5054715;28;20340;-76
2022/11/13 06:42:28;;;;;;;52.65;15.30;;;11.50;99.90;;;;;;5053685;28;20064;-76
2022/11/13 06:45:14;;;;;;;52.70;15.77;;;11.60;99.90;;;;;;5053839;28;20048;-76
2022/11/13 06:48:00;;;;;;;44.88;13.95;;;11.40;99.90;;;;;;5054518;28;20041;-76
2022/11/13 06:50:46;;;;;;;52.22;14.95;;;11.60;99.90;;;;;;5053145;28;20525;-76
2022/11/13 06:53:33;;;;;;;45.42;15.18;;;11.80;99.90;;;;;;5054541;28;20454;-76
2022/11/13 06:56:20;;;;;;;46.05;15.65;;;11.40;99.90;;;;;;5051041;28;20064;-76
2022/11/13 06:59:08;;;;;;;52.70;15.20;;;11.40;99.90;;;;;;5054780;28;20041;-76
2022/11/13 07:01:54;;;;;;;50.03;15.68;;;11.40;99.90;;;;;;5053551;28;20056;-76
2022/11/13 07:04:40;;;;;;;59.00;15.82;;;11.30;99.90;;;;;;5036917;28;20045;-76
2022/11/13 07:07:25;;;;;;;52.80;16.70;;;11.30;99.90;;;;;;5023503;28;20060;-77
2022/11/13 07:10:11;;;;;;;48.47;14.50;;;11.30;99.90;;;;;;5035838;28;20063;-76
2022/11/13 07:12:59;;;;;;;44.70;14.00;;;11.90;99.90;;;;;;5054058;28;20345;-76
2022/11/13 07:15:45;;;;;;;51.80;13.87;;;11.30;99.90;;;;;;5052864;28;20056;-76
2022/11/13 07:18:31;;;;;;;42.25;13.52;;;11.30;99.90;;;;;;5057640;28;20371;-76
2022/11/13 07:21:17;;;;;;;36.30;13.85;;;11.30;99.90;;;;;;5057913;28;20045;-76
2022/11/13 07:24:04;;;;;;;38.60;12.80;;;11.30;99.90;;;;;;5056612;28;20045;-76
2022/11/13 07:26:50;;;;;;;37.53;12.73;;;11.20;99.90;;;;;;5057994;28;20048;-76
2022/11/13 07:29:37;;;;;;;30.85;11.70;;;11.20;99.90;;;;;;5055837;28;20495;-76
2022/11/13 07:32:23;;;;;;;33.55;12.63;;;11.20;99.90;;;;;;5042803;28;20037;-76
2022/11/13 07:35:10;;;;;;;34.47;11.65;;;11.20;99.90;;;;;;5039878;28;20049;-76
2022/11/13 07:37:57;;;;;;;42.45;13.02;;;11.40;99.90;;;;;;5057392;28;20041;-76
2022/11/13 07:40:44;;;;;;;;;;;11.20;99.90;;;;;;5043588;28;20041;-77
2022/11/13 07:43:30;;;;;;;31.38;11.70;;;11.20;99.90;;;;;;5056169;28;19921;-76
2022/11/13 07:46:16;;;;;;;33.90;11.77;;;11.20;99.90;;;;;;5039729;28;20049;-76
2022/11/13 07:49:02;;;;;;;40.08;11.98;;;11.20;99.90;;;;;;5056572;28;20636;-76
2022/11/13 07:51:48;;;;;;;34.20;12.43;;;11.10;99.90;;;;;;5057472;28;20116;-76
2022/11/13 07:54:34;;;;;;;34.58;13.68;;;11.20;99.90;;;;;;5056919;28;20463;-76
2022/11/13 07:57:21;;;;;;;45.13;15.52;;;11.20;99.90;;;;;;5075848;28;20049;-76
2022/11/13 08:00:08;;;;;;;39.53;13.45;;;11.20;99.90;;;;;;5077266;28;20037;-76
2022/11/13 08:02:55;;;;;;;43.67;14.70;;;11.20;99.90;;;;;;5061129;28;20043;-76
2022/11/13 08:05:42;;;;;;;40.30;14.75;;;11.20;99.90;;;;;;5077812;28;20403;-76
2022/11/13 08:08:30;;;;;;;41.53;14.73;;;11.30;99.90;;;;;;5077105;28;20486;-76
2022/11/13 08:11:16;;;;;;;35.08;14.90;;;11.20;99.90;;;;;;5077055;28;20351;-76
2022/11/13 08:14:02;;;;;;;36.85;13.65;;;11.30;99.90;;;;;;5077240;28;20047;-76
2022/11/13 08:16:48;;;;;;;41.95;14.35;;;11.30;99.90;;;;;;5075710;28;20055;-76
2022/11/13 08:19:34;;;;;;;37.15;13.35;;;11.40;99.90;;;;;;5076557;28;20055;-75
2022/11/13 08:22:20;;;;;;;36.83;14.05;;;11.30;99.90;;;;;;5075248;28;20041;-76
2022/11/13 08:25:06;;;;;;;29.73;14.02;;;11.30;99.90;;;;;;5076777;28;20044;-75
2022/11/13 08:27:53;;;;;;;31.75;13.88;;;11.30;99.90;;;;;;5075843;28;20482;-75
2022/11/13 08:30:42;;;;;;;30.33;13.90;;;11.40;99.90;;;;;;5075778;28;20486;-75
2022/11/13 08:33:29;;;;;;;33.95;14.23;;;11.40;99.90;;;;;;5076490;28;20126;-76
2022/11/13 08:36:15;;;;;;;32.17;13.82;;;11.40;99.90;;;;;;5060634;28;20047;-76
2022/11/13 08:39:01;;;;;;;49.33;15.13;;;11.40;99.90;;;;;;5062118;28;20049;-75
2022/11/13 08:41:48;;;;;;;39.45;14.35;;;11.50;99.90;;;;;;5076469;28;20467;-76
2022/11/13 08:44:34;;;;;;;35.75;15.10;;;11.50;99.90;;;;;;5076374;28;20051;-74
2022/11/13 08:47:20;;;;;;;32.83;15.00;;;11.50;99.90;;;;;;5076472;28;20044;-76
2022/11/13 08:50:13;;;;;;;38.22;14.93;;;11.50;99.90;;;;;;5074985;28;20033;-76
2022/11/13 08:53:00;;;;;;;26.98;13.55;;;11.50;99.90;;;;;;5058381;28;20383;-75
2022/11/13 08:55:46;;;;;;;32.78;14.00;;;11.50;99.90;;;;;;5057432;28;20498;-75
2022/11/13 08:58:33;;;;;;;28.05;12.75;;;11.50;99.90;;;;;;5076011;28;20048;-75
2022/11/13 09:01:22;;;;;;;37.83;14.25;;;11.60;99.90;;;;;;5058321;28;20048;-75
2022/11/13 09:04:08;;;;;;;30.83;12.43;;;12.20;99.90;;;;;;5060128;28;20040;-75
2022/11/13 09:06:54;;;;;;;23.92;12.48;;;11.60;99.90;;;;;;5074932;28;20044;-77
2022/11/13 09:09:40;;;;;;;25.05;11.80;;;12.00;99.90;;;;;;5074484;28;20063;-77
2022/11/13 09:12:26;;;;;;;19.83;11.52;;;11.50;99.90;;;;;;5075612;28;20044;-77
2022/11/13 09:15:12;;;;;;;20.20;11.55;;;11.80;99.90;;;;;;5075388;28;20040;-77
2022/11/13 09:18:00;;;;;;;23.90;11.23;;;11.80;99.90;;;;;;5060507;28;20051;-77
2022/11/13 09:20:49;;;;;;;20.52;11.63;;;11.70;99.90;;;;;;5075367;28;20044;-77
2022/11/13 09:23:37;;;;;;;18.23;11.15;;;11.80;99.90;;;;;;5073869;28;20044;-77
2022/11/13 09:26:25;;;;;;;22.90;11.38;;;12.10;99.90;;;;;;5057493;28;20075;-78
2022/11/13 09:29:18;;;;;;;15.02;9.73;;;11.90;99.90;;;;;;5073926;28;20048;-76
2022/11/13 09:32:04;;;;;;;17.23;9.75;;;13.40;99.90;;;;;;5060233;28;20383;-77
2022/11/13 09:34:54;;;;;;;15.52;9.10;;;11.90;99.90;;;;;;5074577;28;20345;-77
2022/11/13 09:37:51;;;;;;;14.93;8.80;;;12.10;99.90;;;;;;5073751;28;20090;-77
2022/11/13 09:40:57;;;;;;;12.80;7.90;;;12.10;99.90;;;;;;5074869;28;20364;-77
2022/11/13 09:43:52;;;;;;;15.35;8.80;;;12.10;99.90;;;;;;5074029;28;20459;-76
2022/11/13 09:46:44;;;;;;;11.57;7.80;;;12.20;99.90;;;;;;5074861;28;20059;-77
2022/11/13 09:49:42;;;;;;;14.50;8.43;;;12.30;99.90;;;;;;5073201;28;20052;-77
2022/11/13 09:52:36;;;;;;;12.75;8.07;;;12.80;99.90;;;;;;5056780;28;20055;-76
2022/11/13 09:56:02;;;;;;;13.57;8.35;;;12.80;99.90;;;;;;5044349;28;20044;-78
2022/11/13 09:59:36;;;;;;;12.35;8.60;;;13.00;99.90;;;;;;5075013;28;20498;-77
2022/11/13 10:02:43;;;;;;;17.30;8.27;;;12.70;99.90;;;;;;5060584;28;20060;-77
2022/11/13 10:05:45;;;;;;;13.43;8.40;;;12.80;99.90;;;;;;5075296;28;20036;-78
2022/11/13 10:09:02;;;;;;;13.82;8.52;;;13.00;99.90;;;;;;5061455;28;20040;-77
2022/11/13 10:11:59;;;;;;;13.77;8.15;;;13.80;99.90;;;;;;5074946;28;20154;-77
2022/11/13 10:14:53;;;;;;;13.32;8.63;;;13.00;99.90;;;;;;5060349;28;20047;-77
2022/11/13 10:17:41;;;;;;;13.93;9.52;;;13.00;99.90;;;;;;5072889;28;20053;-77
2022/11/13 10:20:47;;;;;;;12.07;8.73;;;13.00;99.90;;;;;;5074527;28;20379;-78
2022/11/13 10:23:36;;;;;;;13.68;8.77;;;13.10;99.90;;;;;;5073807;28;20040;-77
2022/11/13 10:26:28;;;;;;;14.00;8.38;;;13.20;99.90;;;;;;5074765;28;20056;-77
2022/11/13 10:29:32;;;;;;;13.87;8.67;;;13.20;99.90;;;;;;5050100;28;20044;-77
2022/11/13 10:32:31;;;;;;;11.80;8.55;;;13.30;99.90;;;;;;5074225;28;20036;-77
2022/11/13 10:35:25;;;;;;;11.32;8.40;;;13.30;99.90;;;;;;5060049;28;20044;-77
2022/11/13 10:38:41;;;;;;;13.85;8.68;;;13.40;99.90;;;;;;5074390;28;20044;-76
2022/11/13 10:41:29;;;;;;;12.75;7.88;;;13.60;99.90;;;;;;5043076;28;20067;-76
2022/11/13 10:44:36;;;;;;;12.57;8.20;;;13.50;99.90;;;;;;5041855;28;20049;-76
2022/11/13 10:47:27;;;;;;;12.43;8.32;;;13.50;99.90;;;;;;5075047;28;20041;-76
2022/11/13 10:50:34;;;;;;;11.02;7.97;;;13.60;99.90;;;;;;5073408;28;20375;-76
2022/11/13 10:53:21;;;;;;;12.55;8.07;;;13.60;99.90;;;;;;5078617;28;20049;-76
2022/11/13 10:56:30;;;;;;;10.07;7.57;;;13.70;99.90;;;;;;5077188;28;20391;-77
2022/11/13 10:59:19;;;;;;;10.57;7.78;;;13.70;99.90;;;;;;5078825;28;20063;-77
2022/11/13 11:02:13;;;;;;;14.57;8.88;;;13.80;99.90;;;;;;5077346;28;20052;-76
2022/11/13 11:05:04;;;;;;;13.43;9.07;;;13.90;99.90;;;;;;5078483;28;20041;-76
2022/11/13 11:08:09;;;;;;;10.63;7.95;;;13.90;99.90;;;;;;5060947;28;20371;-80
2022/11/13 11:14:27;;;;;;;12.15;8.45;;;13.30;99.90;;;;;;5078194;28;20045;-78
2022/11/13 11:18:04;;;;;;;13.60;9.02;;;14.00;99.90;;;;;;5063078;28;20048;-77
2022/11/13 11:21:18;;;;;;;16.65;10.00;;;13.90;99.90;;;;;;5076466;28;20059;-77
2022/11/13 11:24:39;;;;;;;14.25;9.93;;;14.00;99.90;;;;;;4976638;28;20070;-77
2022/11/13 11:28:12;;;;;;;16.50;10.55;;;14.00;99.90;;;;;;4964243;28;20051;-77
2022/11/13 11:31:47;;;;;;;17.58;11.05;;;13.40;99.90;;;;;;4977027;28;20050;-77
2022/11/13 11:34:55;;;;;;;17.38;11.13;;;13.90;99.90;;;;;;4961316;28;20047;-76
2022/11/13 11:38:27;;;;;;;18.52;12.30;;;13.90;99.90;;;;;;4976230;28;20131;-76
2022/11/13 11:42:05;;;;;;;18.40;11.57;;;13.80;99.90;;;;;;4906648;29;20165;-76
2022/11/13 11:45:53;;;;;;;18.60;13.05;;;13.80;99.90;;;;;;4910442;28;20058;-77
2022/11/13 11:48:40;;;;;;;21.88;13.18;;;13.80;99.90;;;;;;5002538;28;20068;-77
2022/11/13 11:52:17;;;;;;;23.30;13.98;;;13.60;99.90;;;;;;4999546;28;20148;-77
2022/11/13 11:55:58;;;;;;;19.45;14.02;;;14.40;99.90;;;;;;5007444;28;20496;-77
2022/11/13 11:59:13;;;;;;;21.23;14.68;;;13.70;99.90;;;;;;5004775;28;20049;-78
2022/11/13 12:02:38;;;;;;;21.77;14.68;;;13.70;99.90;;;;;;5043984;28;20065;-76
2022/11/13 12:06:11;;;;;;;25.30;16.00;;;13.60;99.90;;;;;;5057487;28;20483;-78
2022/11/13 12:09:26;;;;;;;26.02;16.30;;;13.80;99.90;;;;;;5038620;28;20056;-76
2022/11/13 12:12:33;;;;;;;26.08;16.73;;;13.80;99.90;;;;;;5056878;28;20049;-75
2022/11/13 12:15:37;;;;;;;26.48;16.85;;;13.80;99.90;;;;;;5038391;28;20052;-76
2022/11/13 12:18:29;;;;;;;26.60;16.73;;;13.90;99.90;;;;;;5055874;28;20045;-78
2022/11/13 12:21:31;;;;;;;26.58;17.38;;;13.90;99.90;;;;;;5025339;28;20048;-75
2022/11/13 12:25:09;;;;;;;26.83;17.58;;;14.00;99.90;;;;;;5046880;28;20052;-77
2022/11/13 12:28:22;;;;;;;27.95;18.48;;;14.10;99.90;;;;;;5041920;28;20068;-77
2022/11/13 12:32:01;;;;;;;29.75;19.65;;;14.10;99.90;;;;;;5057179;28;20053;-78
2022/11/13 12:34:52;;;;;;;29.50;18.15;;;14.20;99.90;;;;;;5045587;28;20045;-76
2022/11/13 12:38:17;;;;;;;29.90;19.38;;;14.20;99.90;;;;;;5056788;28;20052;-76
2022/11/13 12:41:13;;;;;;;31.85;19.35;;;14.30;99.90;;;;;;5037957;28;20064;-76
2022/11/13 12:44:12;;;;;;;27.25;19.05;;;14.40;99.90;;;;;;5054115;28;20045;-77
2022/11/13 12:47:00;;;;;;;27.48;17.63;;;14.40;99.90;;;;;;5024800;28;20049;-73
2022/11/13 12:49:58;;;;;;;32.43;20.07;;;14.50;99.90;;;;;;5034396;28;20341;-76
2022/11/13 12:52:55;;;;;;;30.77;19.77;;;14.50;99.90;;;;;;5055376;28;20048;-75
2022/11/13 12:55:58;;;;;;;32.17;20.05;;;14.50;99.90;;;;;;5048000;28;20051;-77
2022/11/13 12:59:25;;;;;;;35.83;21.58;;;14.40;99.90;;;;;;5075840;28;20060;-74
2022/11/13 13:02:33;;;;;;;32.58;21.02;;;14.50;99.90;;;;;;5075043;28;20041;-72
2022/11/13 13:05:28;;;;;;;28.08;17.92;;;14.50;99.90;;;;;;5075399;28;20337;-73
2022/11/13 13:08:32;;;;;;;26.38;17.65;;;14.40;99.90;;;;;;5075841;28;20059;-73
2022/11/13 13:11:45;;;;;;;34.03;20.55;;;14.40;99.90;;;;;;5075685;28;20471;-73
2022/11/13 13:14:49;;;;;;;32.40;21.15;;;14.40;99.90;;;;;;5073460;28;20047;-74
2022/11/13 13:17:35;;;;;;;30.52;20.23;;;14.40;99.90;;;;;;5074117;28;20052;-77
2022/11/13 13:20:20;;;;;;;33.33;20.98;;;14.30;99.90;;;;;;5075666;28;20036;-76
2022/11/13 13:23:13;;;;;;;30.33;20.33;;;14.30;99.90;;;;;;5074377;28;20049;-76
2022/11/13 13:26:03;;;;;;;34.20;21.05;;;14.30;99.90;;;;;;5073819;28;20041;-77
2022/11/13 13:29:23;;;;;;;36.42;21.80;;;12.30;99.90;;;;;;5073560;28;20045;-76
2022/11/13 13:32:14;;;;;;;30.90;20.83;;;14.20;99.90;;;;;;5064711;28;20040;-76
2022/11/13 13:35:20;;;;;;;34.80;22.25;;;14.20;99.90;;;;;;5075056;28;20051;-78
2022/11/13 13:38:19;;;;;;;34.80;21.40;;;14.20;99.90;;;;;;5075018;28;20059;-75
2022/11/13 13:41:43;;;;;;;34.83;22.02;;;14.20;99.90;;;;;;5074740;28;20036;-78
2022/11/13 13:44:49;;;;;;;36.30;22.05;;;14.20;99.90;;;;;;5074825;28;20033;-76
2022/11/13 13:47:46;;;;;;;38.23;23.83;;;14.20;99.90;;;;;;5074812;28;20047;-78
2022/11/13 13:50:37;;;;;;;39.00;23.35;;;14.20;99.90;;;;;;5073693;28;20632;-78
2022/11/13 13:53:30;;;;;;;34.53;21.90;;;14.20;99.90;;;;;;5053338;28;20049;-78
2022/11/13 13:56:22;;;;;;;36.60;21.85;;;14.10;99.90;;;;;;5052501;28;20064;-78
2022/11/13 13:59:19;;;;;;;35.75;21.95;;;14.10;99.90;;;;;;5054790;28;20049;-78
2022/11/13 14:02:35;;;;;;;;;;;14.00;99.90;;;;;;5054117;28;20052;-78
2022/11/13 14:05:33;;;;;;;35.10;22.15;;;14.00;99.90;;;;;;5033391;28;19932;-76
2022/11/13 14:08:23;;;;;;;35.65;22.00;;;13.90;99.90;;;;;;5053893;28;20045;-73
2022/11/13 14:11:18;;;;;;;35.08;24.33;;;12.70;99.90;;;;;;5053752;28;20048;-73
2022/11/13 14:14:17;;;;;;;37.33;24.42;;;13.90;99.90;;;;;;5054370;28;20048;-75
2022/11/13 14:17:07;;;;;;;34.55;23.10;;;13.90;99.90;;;;;;5052646;28;20048;-74
2022/11/13 14:19:59;;;;;;;35.83;23.00;;;13.90;99.90;;;;;;5053678;28;20040;-75
2022/11/13 14:22:50;;;;;;;32.22;22.08;;;13.80;99.90;;;;;;5052451;28;20345;-74
2022/11/13 14:25:48;;;;;;;31.65;22.25;;;13.80;99.90;;;;;;5039792;28;20111;-74
2022/11/13 14:28:54;;;;;;;33.67;22.38;;;13.90;99.90;;;;;;5054270;28;20383;-74
2022/11/13 14:31:41;;;;;;;31.77;22.10;;;13.80;99.90;;;;;;5054345;28;20037;-74
2022/11/13 14:34:29;;;;;;;31.05;22.17;;;13.70;99.90;;;;;;5054286;28;20059;-76
2022/11/13 14:37:21;;;;;;;;;;;13.70;99.90;;;;;;5053485;28;20045;-74
2022/11/13 14:40:19;;;;;;;37.13;23.70;;;13.70;99.90;;;;;;5054132;28;19925;-74
2022/11/13 14:43:17;;;;;;;41.58;26.70;;;13.70;99.90;;;;;;5053149;28;20036;-76